sensor_id;sensor_type;location;lat;lon;timestamp;P1;durP1;ratioP1;P2;durP2;ratioP2
18887;SDS011;9576;47.792;9.628;2023-04-03T00:02:04;2.05;;;1.85;;
18887;SDS011;9576;47.792;9.628;2023-04-03T00:05:06;0.90;;;0.88;;
18887;SDS011;9576;47.792;9.628;2023-04-03T00:08:10;1.50;;;1.35;;
18887;SDS011;9576;47.792;9.628;2023-04-03T00:11:12;1.48;;;1.38;;
18887;SDS011;9576;47.792;9.628;2023-04-03T00:14:14;1.80;;;1.70;;
18887;SDS011;9576;47.792;9.628;2023-04-03T00:17:16;3.10;;;1.67;;
18887;SDS011;9576;47.792;9.628;2023-04-03T00:20:17;1.15;;;1.08;;
18887;SDS011;9576;47.792;9.628;2023-04-03T00:23:21;1.52;;;1.42;;
18887;SDS011;9576;47.792;9.628;2023-04-03T00:26:23;1.23;;;1.13;;
18887;SDS011;9576;47.792;9.628;2023-04-03T00:29:25;1.58;;;1.25;;
18887;SDS011;9576;47.792;9.628;2023-04-03T00:32:27;1.63;;;1.42;;
18887;SDS011;9576;47.792;9.628;2023-04-03T00:35:29;2.30;;;1.45;;
18887;SDS011;9576;47.792;9.628;2023-04-03T00:38:32;1.70;;;1.30;;
18887;SDS011;9576;47.792;9.628;2023-04-03T00:41:34;1.77;;;1.50;;
18887;SDS011;9576;47.792;9.628;2023-04-03T00:48:17;1.50;;;1.40;;
18887;SDS011;9576;47.792;9.628;2023-04-03T00:51:23;1.90;;;1.52;;
18887;SDS011;9576;47.792;9.628;2023-04-03T00:54:27;1.80;;;1.65;;
18887;SDS011;9576;47.792;9.628;2023-04-03T00:57:29;2.03;;;1.83;;
18887;SDS011;9576;47.792;9.628;2023-04-03T01:00:32;1.52;;;1.38;;
18887;SDS011;9576;47.792;9.628;2023-04-03T01:03:35;1.40;;;1.30;;
18887;SDS011;9576;47.792;9.628;2023-04-03T01:06:37;1.63;;;1.45;;
18887;SDS011;9576;47.792;9.628;2023-04-03T01:09:40;2.45;;;1.80;;
18887;SDS011;9576;47.792;9.628;2023-04-03T01:12:44;4.85;;;1.65;;
18887;SDS011;9576;47.792;9.628;2023-04-03T01:15:47;3.65;;;1.75;;
18887;SDS011;9576;47.792;9.628;2023-04-03T01:18:49;1.67;;;1.58;;
18887;SDS011;9576;47.792;9.628;2023-04-03T01:21:59;2.17;;;1.98;;
18887;SDS011;9576;47.792;9.628;2023-04-03T01:25:14;1.95;;;1.58;;
18887;SDS011;9576;47.792;9.628;2023-04-03T01:28:17;5.10;;;1.77;;
18887;SDS011;9576;47.792;9.628;2023-04-03T01:31:22;1.40;;;1.30;;
18887;SDS011;9576;47.792;9.628;2023-04-03T01:34:28;2.05;;;1.67;;
18887;SDS011;9576;47.792;9.628;2023-04-03T01:37:31;1.83;;;1.63;;
18887;SDS011;9576;47.792;9.628;2023-04-03T01:40:33;2.03;;;1.83;;
18887;SDS011;9576;47.792;9.628;2023-04-03T01:43:35;1.75;;;1.63;;
18887;SDS011;9576;47.792;9.628;2023-04-03T01:46:37;1.80;;;1.70;;
18887;SDS011;9576;47.792;9.628;2023-04-03T01:49:41;2.40;;;1.60;;
18887;SDS011;9576;47.792;9.628;2023-04-03T01:52:43;2.00;;;1.50;;
18887;SDS011;9576;47.792;9.628;2023-04-03T01:55:45;2.35;;;2.05;;
18887;SDS011;9576;47.792;9.628;2023-04-03T01:58:47;3.35;;;2.55;;
18887;SDS011;9576;47.792;9.628;2023-04-03T02:01:49;3.08;;;2.47;;
18887;SDS011;9576;47.792;9.628;2023-04-03T02:04:52;3.45;;;2.63;;
18887;SDS011;9576;47.792;9.628;2023-04-03T02:07:54;3.47;;;2.67;;
18887;SDS011;9576;47.792;9.628;2023-04-03T02:10:56;2.83;;;2.28;;
18887;SDS011;9576;47.792;9.628;2023-04-03T02:13:58;3.65;;;2.40;;
18887;SDS011;9576;47.792;9.628;2023-04-03T02:17:00;5.07;;;3.72;;
18887;SDS011;9576;47.792;9.628;2023-04-03T02:23:09;5.47;;;3.13;;
18887;SDS011;9576;47.792;9.628;2023-04-03T02:26:12;4.70;;;3.10;;
18887;SDS011;9576;47.792;9.628;2023-04-03T02:32:17;4.75;;;3.28;;
18887;SDS011;9576;47.792;9.628;2023-04-03T02:35:20;3.25;;;2.50;;
18887;SDS011;9576;47.792;9.628;2023-04-03T02:38:22;4.57;;;3.03;;
18887;SDS011;9576;47.792;9.628;2023-04-03T02:41:25;4.53;;;2.80;;
18887;SDS011;9576;47.792;9.628;2023-04-03T02:44:33;3.75;;;2.75;;
18887;SDS011;9576;47.792;9.628;2023-04-03T02:47:35;3.17;;;2.65;;
18887;SDS011;9576;47.792;9.628;2023-04-03T02:50:38;3.05;;;2.53;;
18887;SDS011;9576;47.792;9.628;2023-04-03T02:53:40;3.60;;;2.67;;
18887;SDS011;9576;47.792;9.628;2023-04-03T02:56:42;3.55;;;2.50;;
18887;SDS011;9576;47.792;9.628;2023-04-03T02:59:44;4.72;;;2.72;;
18887;SDS011;9576;47.792;9.628;2023-04-03T03:02:48;3.78;;;2.55;;
18887;SDS011;9576;47.792;9.628;2023-04-03T03:05:59;5.78;;;2.90;;
18887;SDS011;9576;47.792;9.628;2023-04-03T03:09:02;2.95;;;2.45;;
18887;SDS011;9576;47.792;9.628;2023-04-03T03:12:05;3.35;;;2.58;;
18887;SDS011;9576;47.792;9.628;2023-04-03T03:15:07;5.05;;;2.70;;
18887;SDS011;9576;47.792;9.628;2023-04-03T03:18:10;3.83;;;2.70;;
18887;SDS011;9576;47.792;9.628;2023-04-03T03:21:13;2.63;;;2.22;;
18887;SDS011;9576;47.792;9.628;2023-04-03T03:24:15;5.47;;;2.25;;
18887;SDS011;9576;47.792;9.628;2023-04-03T03:27:17;4.38;;;3.35;;
18887;SDS011;9576;47.792;9.628;2023-04-03T03:30:19;4.80;;;3.17;;
18887;SDS011;9576;47.792;9.628;2023-04-03T03:33:21;1.95;;;1.75;;
18887;SDS011;9576;47.792;9.628;2023-04-03T03:36:24;8.57;;;2.83;;
18887;SDS011;9576;47.792;9.628;2023-04-03T03:39:26;3.42;;;2.45;;
18887;SDS011;9576;47.792;9.628;2023-04-03T03:42:29;2.55;;;2.08;;
18887;SDS011;9576;47.792;9.628;2023-04-03T03:45:31;2.50;;;1.92;;
18887;SDS011;9576;47.792;9.628;2023-04-03T03:48:33;2.67;;;2.20;;
18887;SDS011;9576;47.792;9.628;2023-04-03T03:51:36;3.72;;;2.53;;
18887;SDS011;9576;47.792;9.628;2023-04-03T03:54:38;2.70;;;2.28;;
18887;SDS011;9576;47.792;9.628;2023-04-03T03:57:40;3.63;;;2.53;;
18887;SDS011;9576;47.792;9.628;2023-04-03T04:00:42;4.85;;;2.20;;
18887;SDS011;9576;47.792;9.628;2023-04-03T04:03:44;3.63;;;2.35;;
18887;SDS011;9576;47.792;9.628;2023-04-03T04:06:47;3.22;;;2.58;;
18887;SDS011;9576;47.792;9.628;2023-04-03T04:09:49;4.15;;;2.42;;
18887;SDS011;9576;47.792;9.628;2023-04-03T04:12:51;3.42;;;2.25;;
18887;SDS011;9576;47.792;9.628;2023-04-03T04:15:53;3.05;;;2.22;;
18887;SDS011;9576;47.792;9.628;2023-04-03T04:18:55;3.92;;;2.45;;
18887;SDS011;9576;47.792;9.628;2023-04-03T04:21:58;2.92;;;2.10;;
18887;SDS011;9576;47.792;9.628;2023-04-03T04:25:00;4.60;;;2.50;;
18887;SDS011;9576;47.792;9.628;2023-04-03T04:28:02;8.57;;;2.47;;
18887;SDS011;9576;47.792;9.628;2023-04-03T04:31:04;4.70;;;2.58;;
18887;SDS011;9576;47.792;9.628;2023-04-03T04:34:06;4.05;;;2.92;;
18887;SDS011;9576;47.792;9.628;2023-04-03T04:37:10;3.58;;;2.58;;
18887;SDS011;9576;47.792;9.628;2023-04-03T04:40:12;10.32;;;3.85;;
18887;SDS011;9576;47.792;9.628;2023-04-03T04:43:14;4.82;;;3.00;;
18887;SDS011;9576;47.792;9.628;2023-04-03T04:46:16;9.93;;;5.25;;
18887;SDS011;9576;47.792;9.628;2023-04-03T04:49:18;4.28;;;2.70;;
18887;SDS011;9576;47.792;9.628;2023-04-03T04:52:22;9.82;;;5.05;;
18887;SDS011;9576;47.792;9.628;2023-04-03T04:55:24;10.18;;;4.40;;
18887;SDS011;9576;47.792;9.628;2023-04-03T04:58:26;7.03;;;3.95;;
18887;SDS011;9576;47.792;9.628;2023-04-03T05:01:28;4.50;;;2.78;;
18887;SDS011;9576;47.792;9.628;2023-04-03T05:04:30;5.75;;;3.20;;
18887;SDS011;9576;47.792;9.628;2023-04-03T05:07:34;6.38;;;2.85;;
18887;SDS011;9576;47.792;9.628;2023-04-03T05:10:36;3.70;;;2.38;;
18887;SDS011;9576;47.792;9.628;2023-04-03T05:13:40;4.38;;;2.78;;
18887;SDS011;9576;47.792;9.628;2023-04-03T05:16:42;3.15;;;2.55;;
18887;SDS011;9576;47.792;9.628;2023-04-03T05:19:44;4.55;;;2.47;;
18887;SDS011;9576;47.792;9.628;2023-04-03T05:22:47;3.72;;;2.08;;
18887;SDS011;9576;47.792;9.628;2023-04-03T05:25:49;3.28;;;2.33;;
18887;SDS011;9576;47.792;9.628;2023-04-03T05:28:51;3.28;;;2.45;;
18887;SDS011;9576;47.792;9.628;2023-04-03T05:31:53;3.35;;;2.28;;
18887;SDS011;9576;47.792;9.628;2023-04-03T05:34:55;2.97;;;2.30;;
18887;SDS011;9576;47.792;9.628;2023-04-03T05:37:59;3.38;;;2.30;;
18887;SDS011;9576;47.792;9.628;2023-04-03T05:41:01;14.10;;;2.03;;
18887;SDS011;9576;47.792;9.628;2023-04-03T05:44:02;4.90;;;2.38;;
18887;SDS011;9576;47.792;9.628;2023-04-03T05:47:04;2.70;;;1.98;;
18887;SDS011;9576;47.792;9.628;2023-04-03T05:50:06;4.10;;;3.00;;
18887;SDS011;9576;47.792;9.628;2023-04-03T05:53:11;8.18;;;2.78;;
18887;SDS011;9576;47.792;9.628;2023-04-03T05:56:18;3.35;;;2.45;;
18887;SDS011;9576;47.792;9.628;2023-04-03T05:59:20;5.10;;;3.10;;
18887;SDS011;9576;47.792;9.628;2023-04-03T06:02:23;6.75;;;3.40;;
18887;SDS011;9576;47.792;9.628;2023-04-03T06:05:25;6.20;;;3.13;;
18887;SDS011;9576;47.792;9.628;2023-04-03T06:08:29;4.82;;;3.00;;
18887;SDS011;9576;47.792;9.628;2023-04-03T06:11:31;5.25;;;3.58;;
18887;SDS011;9576;47.792;9.628;2023-04-03T06:14:33;5.90;;;4.03;;
18887;SDS011;9576;47.792;9.628;2023-04-03T06:17:35;5.15;;;3.63;;
18887;SDS011;9576;47.792;9.628;2023-04-03T06:20:37;5.78;;;3.38;;
18887;SDS011;9576;47.792;9.628;2023-04-03T06:23:40;11.25;;;4.95;;
18887;SDS011;9576;47.792;9.628;2023-04-03T06:26:42;3.80;;;2.28;;
18887;SDS011;9576;47.792;9.628;2023-04-03T06:29:45;4.38;;;2.97;;
18887;SDS011;9576;47.792;9.628;2023-04-03T06:32:48;5.80;;;3.35;;
18887;SDS011;9576;47.792;9.628;2023-04-03T06:35:55;4.53;;;3.00;;
18887;SDS011;9576;47.792;9.628;2023-04-03T06:38:59;13.60;;;4.13;;
18887;SDS011;9576;47.792;9.628;2023-04-03T06:42:01;6.03;;;3.40;;
18887;SDS011;9576;47.792;9.628;2023-04-03T06:45:04;16.80;;;6.55;;
18887;SDS011;9576;47.792;9.628;2023-04-03T06:48:07;19.13;;;7.60;;
18887;SDS011;9576;47.792;9.628;2023-04-03T06:51:16;9.93;;;4.93;;
18887;SDS011;9576;47.792;9.628;2023-04-03T06:54:21;11.50;;;5.38;;
18887;SDS011;9576;47.792;9.628;2023-04-03T06:57:23;17.77;;;7.13;;
18887;SDS011;9576;47.792;9.628;2023-04-03T07:00:25;4.90;;;3.15;;
18887;SDS011;9576;47.792;9.628;2023-04-03T07:03:27;5.63;;;3.17;;
18887;SDS011;9576;47.792;9.628;2023-04-03T07:06:29;4.82;;;3.33;;
18887;SDS011;9576;47.792;9.628;2023-04-03T07:09:33;4.43;;;3.10;;
18887;SDS011;9576;47.792;9.628;2023-04-03T07:12:36;5.77;;;3.07;;
18887;SDS011;9576;47.792;9.628;2023-04-03T07:15:38;3.95;;;2.92;;
18887;SDS011;9576;47.792;9.628;2023-04-03T07:18:40;4.65;;;2.92;;
18887;SDS011;9576;47.792;9.628;2023-04-03T07:21:42;5.07;;;3.15;;
18887;SDS011;9576;47.792;9.628;2023-04-03T07:24:46;18.33;;;3.25;;
18887;SDS011;9576;47.792;9.628;2023-04-03T07:27:47;4.60;;;3.00;;
18887;SDS011;9576;47.792;9.628;2023-04-03T07:30:50;8.45;;;3.22;;
18887;SDS011;9576;47.792;9.628;2023-04-03T07:33:53;7.67;;;2.90;;
18887;SDS011;9576;47.792;9.628;2023-04-03T07:36:55;3.42;;;2.70;;
18887;SDS011;9576;47.792;9.628;2023-04-03T07:39:59;6.57;;;3.72;;
18887;SDS011;9576;47.792;9.628;2023-04-03T07:43:04;4.32;;;3.13;;
18887;SDS011;9576;47.792;9.628;2023-04-03T07:46:06;4.90;;;2.95;;
18887;SDS011;9576;47.792;9.628;2023-04-03T07:49:08;4.82;;;2.90;;
18887;SDS011;9576;47.792;9.628;2023-04-03T07:52:10;6.53;;;3.63;;
18887;SDS011;9576;47.792;9.628;2023-04-03T07:55:13;8.05;;;3.40;;
18887;SDS011;9576;47.792;9.628;2023-04-03T07:58:16;6.18;;;3.85;;
18887;SDS011;9576;47.792;9.628;2023-04-03T08:01:19;8.70;;;3.67;;
18887;SDS011;9576;47.792;9.628;2023-04-03T08:04:21;6.40;;;2.67;;
18887;SDS011;9576;47.792;9.628;2023-04-03T08:07:23;5.28;;;3.00;;
18887;SDS011;9576;47.792;9.628;2023-04-03T08:10:26;3.22;;;2.50;;
18887;SDS011;9576;47.792;9.628;2023-04-03T08:13:30;2.80;;;2.45;;
18887;SDS011;9576;47.792;9.628;2023-04-03T08:16:32;4.03;;;2.45;;
18887;SDS011;9576;47.792;9.628;2023-04-03T08:19:34;8.18;;;3.80;;
18887;SDS011;9576;47.792;9.628;2023-04-03T08:22:36;7.18;;;4.07;;
18887;SDS011;9576;47.792;9.628;2023-04-03T08:25:40;2.55;;;2.13;;
18887;SDS011;9576;47.792;9.628;2023-04-03T08:28:42;4.73;;;2.63;;
18887;SDS011;9576;47.792;9.628;2023-04-03T08:31:44;4.53;;;3.33;;
18887;SDS011;9576;47.792;9.628;2023-04-03T08:34:46;4.15;;;2.85;;
18887;SDS011;9576;47.792;9.628;2023-04-03T08:37:48;3.60;;;2.55;;
18887;SDS011;9576;47.792;9.628;2023-04-03T08:41:00;3.25;;;2.30;;
18887;SDS011;9576;47.792;9.628;2023-04-03T08:44:21;5.50;;;2.80;;
18887;SDS011;9576;47.792;9.628;2023-04-03T08:47:28;3.20;;;2.08;;
18887;SDS011;9576;47.792;9.628;2023-04-03T08:50:38;4.10;;;2.35;;
18887;SDS011;9576;47.792;9.628;2023-04-03T08:53:44;3.70;;;2.65;;
18887;SDS011;9576;47.792;9.628;2023-04-03T08:56:54;5.82;;;2.58;;
18887;SDS011;9576;47.792;9.628;2023-04-03T08:59:57;2.63;;;1.52;;
18887;SDS011;9576;47.792;9.628;2023-04-03T09:03:02;4.03;;;2.13;;
18887;SDS011;9576;47.792;9.628;2023-04-03T09:06:05;2.80;;;1.77;;
18887;SDS011;9576;47.792;9.628;2023-04-03T09:09:15;4.57;;;2.30;;
18887;SDS011;9576;47.792;9.628;2023-04-03T09:12:27;3.45;;;2.45;;
18887;SDS011;9576;47.792;9.628;2023-04-03T09:15:37;3.88;;;2.67;;
18887;SDS011;9576;47.792;9.628;2023-04-03T09:18:41;3.83;;;2.25;;
18887;SDS011;9576;47.792;9.628;2023-04-03T09:21:55;6.28;;;2.33;;
18887;SDS011;9576;47.792;9.628;2023-04-03T09:24:59;5.05;;;2.30;;
18887;SDS011;9576;47.792;9.628;2023-04-03T09:28:15;2.33;;;2.00;;
18887;SDS011;9576;47.792;9.628;2023-04-03T09:31:19;3.88;;;2.10;;
18887;SDS011;9576;47.792;9.628;2023-04-03T09:34:24;3.25;;;2.63;;
18887;SDS011;9576;47.792;9.628;2023-04-03T09:37:36;5.93;;;3.05;;
18887;SDS011;9576;47.792;9.628;2023-04-03T09:40:41;4.60;;;3.22;;
18887;SDS011;9576;47.792;9.628;2023-04-03T09:43:52;3.03;;;2.25;;
18887;SDS011;9576;47.792;9.628;2023-04-03T09:46:55;3.92;;;2.13;;
18887;SDS011;9576;47.792;9.628;2023-04-03T09:50:09;5.55;;;2.35;;
18887;SDS011;9576;47.792;9.628;2023-04-03T09:53:24;2.75;;;1.92;;
18887;SDS011;9576;47.792;9.628;2023-04-03T09:56:29;2.53;;;2.25;;
18887;SDS011;9576;47.792;9.628;2023-04-03T09:59:33;2.78;;;2.28;;
18887;SDS011;9576;47.792;9.628;2023-04-03T10:02:36;1.75;;;1.65;;
18887;SDS011;9576;47.792;9.628;2023-04-03T10:05:40;2.55;;;2.05;;
18887;SDS011;9576;47.792;9.628;2023-04-03T10:08:42;2.20;;;2.00;;
18887;SDS011;9576;47.792;9.628;2023-04-03T10:12:00;2.42;;;1.85;;
18887;SDS011;9576;47.792;9.628;2023-04-03T10:15:11;1.85;;;1.45;;
18887;SDS011;9576;47.792;9.628;2023-04-03T10:18:22;1.95;;;1.60;;
18887;SDS011;9576;47.792;9.628;2023-04-03T10:21:34;3.40;;;2.20;;
18887;SDS011;9576;47.792;9.628;2023-04-03T10:24:44;1.50;;;1.40;;
18887;SDS011;9576;47.792;9.628;2023-04-03T10:27:53;5.18;;;3.20;;
18887;SDS011;9576;47.792;9.628;2023-04-03T10:31:03;5.00;;;2.38;;
18887;SDS011;9576;47.792;9.628;2023-04-03T10:34:15;1.90;;;1.55;;
18887;SDS011;9576;47.792;9.628;2023-04-03T10:37:24;1.08;;;0.98;;
18887;SDS011;9576;47.792;9.628;2023-04-03T10:40:29;1.30;;;1.13;;
18887;SDS011;9576;47.792;9.628;2023-04-03T10:43:36;1.33;;;1.20;;
18887;SDS011;9576;47.792;9.628;2023-04-03T10:46:47;3.88;;;1.63;;
18887;SDS011;9576;47.792;9.628;2023-04-03T10:49:51;1.70;;;1.10;;
18887;SDS011;9576;47.792;9.628;2023-04-03T10:53:03;2.83;;;1.52;;
18887;SDS011;9576;47.792;9.628;2023-04-03T10:56:10;1.65;;;1.40;;
18887;SDS011;9576;47.792;9.628;2023-04-03T10:59:21;2.00;;;1.17;;
18887;SDS011;9576;47.792;9.628;2023-04-03T11:02:28;1.67;;;1.42;;
18887;SDS011;9576;47.792;9.628;2023-04-03T11:05:34;2.70;;;1.60;;
18887;SDS011;9576;47.792;9.628;2023-04-03T11:08:42;1.17;;;1.08;;
18887;SDS011;9576;47.792;9.628;2023-04-03T11:11:51;1.88;;;1.30;;
18887;SDS011;9576;47.792;9.628;2023-04-03T11:14:56;1.85;;;1.40;;
18887;SDS011;9576;47.792;9.628;2023-04-03T11:18:00;1.98;;;1.60;;
18887;SDS011;9576;47.792;9.628;2023-04-03T11:21:09;2.67;;;1.77;;
18887;SDS011;9576;47.792;9.628;2023-04-03T11:24:16;1.60;;;1.23;;
18887;SDS011;9576;47.792;9.628;2023-04-03T11:27:23;3.00;;;1.70;;
18887;SDS011;9576;47.792;9.628;2023-04-03T11:30:27;2.20;;;1.63;;
18887;SDS011;9576;47.792;9.628;2023-04-03T11:33:39;2.70;;;1.80;;
18887;SDS011;9576;47.792;9.628;2023-04-03T11:36:46;2.45;;;1.80;;
18887;SDS011;9576;47.792;9.628;2023-04-03T11:39:53;1.90;;;1.40;;
18887;SDS011;9576;47.792;9.628;2023-04-03T11:43:03;2.25;;;1.60;;
18887;SDS011;9576;47.792;9.628;2023-04-03T11:46:08;2.80;;;1.58;;
18887;SDS011;9576;47.792;9.628;2023-04-03T11:49:21;7.30;;;1.77;;
18887;SDS011;9576;47.792;9.628;2023-04-03T11:52:56;3.67;;;1.73;;
18887;SDS011;9576;47.792;9.628;2023-04-03T11:59:36;3.03;;;1.50;;
18887;SDS011;9576;47.792;9.628;2023-04-03T12:02:38;7.40;;;1.70;;
18887;SDS011;9576;47.792;9.628;2023-04-03T12:05:41;1.85;;;1.50;;
18887;SDS011;9576;47.792;9.628;2023-04-03T12:08:44;3.00;;;1.98;;
18887;SDS011;9576;47.792;9.628;2023-04-03T12:11:47;4.47;;;2.08;;
18887;SDS011;9576;47.792;9.628;2023-04-03T12:14:50;2.17;;;1.38;;
18887;SDS011;9576;47.792;9.628;2023-04-03T12:17:52;2.00;;;1.30;;
18887;SDS011;9576;47.792;9.628;2023-04-03T12:20:59;1.98;;;1.33;;
18887;SDS011;9576;47.792;9.628;2023-04-03T12:24:02;3.05;;;1.42;;
18887;SDS011;9576;47.792;9.628;2023-04-03T12:27:14;1.85;;;1.67;;
18887;SDS011;9576;47.792;9.628;2023-04-03T12:30:22;2.85;;;2.17;;
18887;SDS011;9576;47.792;9.628;2023-04-03T12:33:31;1.42;;;1.17;;
18887;SDS011;9576;47.792;9.628;2023-04-03T12:36:48;1.38;;;1.27;;
18887;SDS011;9576;47.792;9.628;2023-04-03T12:40:02;1.45;;;1.15;;
18887;SDS011;9576;47.792;9.628;2023-04-03T12:46:45;1.50;;;1.40;;
18887;SDS011;9576;47.792;9.628;2023-04-03T12:49:50;2.65;;;1.10;;
18887;SDS011;9576;47.792;9.628;2023-04-03T12:52:59;2.40;;;1.85;;
18887;SDS011;9576;47.792;9.628;2023-04-03T12:56:19;1.35;;;1.02;;
18887;SDS011;9576;47.792;9.628;2023-04-03T12:59:23;3.08;;;1.60;;
18887;SDS011;9576;47.792;9.628;2023-04-03T13:02:27;1.43;;;1.20;;
18887;SDS011;9576;47.792;9.628;2023-04-03T13:05:30;2.42;;;1.58;;
18887;SDS011;9576;47.792;9.628;2023-04-03T13:08:34;4.57;;;1.67;;
18887;SDS011;9576;47.792;9.628;2023-04-03T13:11:37;2.45;;;1.73;;
18887;SDS011;9576;47.792;9.628;2023-04-03T13:14:51;4.07;;;1.35;;
18887;SDS011;9576;47.792;9.628;2023-04-03T13:17:54;1.23;;;1.13;;
18887;SDS011;9576;47.792;9.628;2023-04-03T13:20:57;1.92;;;1.60;;
18887;SDS011;9576;47.792;9.628;2023-04-03T13:24:05;3.25;;;1.48;;
18887;SDS011;9576;47.792;9.628;2023-04-03T13:27:10;1.53;;;1.23;;
18887;SDS011;9576;47.792;9.628;2023-04-03T13:30:19;1.65;;;1.27;;
18887;SDS011;9576;47.792;9.628;2023-04-03T13:33:25;1.20;;;0.90;;
18887;SDS011;9576;47.792;9.628;2023-04-03T13:36:31;1.35;;;1.25;;
18887;SDS011;9576;47.792;9.628;2023-04-03T13:39:36;2.50;;;1.42;;
18887;SDS011;9576;47.792;9.628;2023-04-03T13:42:40;2.50;;;1.50;;
18887;SDS011;9576;47.792;9.628;2023-04-03T13:45:53;1.70;;;1.48;;
18887;SDS011;9576;47.792;9.628;2023-04-03T13:49:17;4.05;;;1.58;;
18887;SDS011;9576;47.792;9.628;2023-04-03T13:52:22;1.50;;;1.17;;
18887;SDS011;9576;47.792;9.628;2023-04-03T13:55:29;1.20;;;1.10;;
18887;SDS011;9576;47.792;9.628;2023-04-03T13:58:33;4.78;;;1.45;;
18887;SDS011;9576;47.792;9.628;2023-04-03T14:01:41;1.20;;;1.10;;
18887;SDS011;9576;47.792;9.628;2023-04-03T14:04:47;1.85;;;1.08;;
18887;SDS011;9576;47.792;9.628;2023-04-03T14:07:53;1.42;;;1.20;;
18887;SDS011;9576;47.792;9.628;2023-04-03T14:10:57;1.10;;;1.00;;
18887;SDS011;9576;47.792;9.628;2023-04-03T14:14:00;1.33;;;1.23;;
18887;SDS011;9576;47.792;9.628;2023-04-03T14:17:10;9.18;;;1.08;;
18887;SDS011;9576;47.792;9.628;2023-04-03T14:20:16;2.97;;;1.10;;
18887;SDS011;9576;47.792;9.628;2023-04-03T14:23:20;1.42;;;0.93;;
18887;SDS011;9576;47.792;9.628;2023-04-03T14:26:23;1.02;;;0.85;;
18887;SDS011;9576;47.792;9.628;2023-04-03T14:29:26;2.67;;;1.77;;
18887;SDS011;9576;47.792;9.628;2023-04-03T14:32:28;4.00;;;1.55;;
18887;SDS011;9576;47.792;9.628;2023-04-03T14:35:30;1.95;;;1.02;;
18887;SDS011;9576;47.792;9.628;2023-04-03T14:38:32;3.20;;;1.27;;
18887;SDS011;9576;47.792;9.628;2023-04-03T14:41:36;4.50;;;1.45;;
18887;SDS011;9576;47.792;9.628;2023-04-03T14:44:38;2.13;;;1.67;;
18887;SDS011;9576;47.792;9.628;2023-04-03T14:47:42;1.65;;;1.10;;
18887;SDS011;9576;47.792;9.628;2023-04-03T14:50:47;0.88;;;0.80;;
18887;SDS011;9576;47.792;9.628;2023-04-03T14:53:50;2.45;;;1.50;;
18887;SDS011;9576;47.792;9.628;2023-04-03T14:56:55;1.08;;;0.98;;
18887;SDS011;9576;47.792;9.628;2023-04-03T15:00:00;1.42;;;1.20;;
18887;SDS011;9576;47.792;9.628;2023-04-03T15:03:04;0.98;;;0.90;;
18887;SDS011;9576;47.792;9.628;2023-04-03T15:06:08;2.58;;;1.27;;
18887;SDS011;9576;47.792;9.628;2023-04-03T15:12:20;2.35;;;1.10;;
18887;SDS011;9576;47.792;9.628;2023-04-03T15:15:23;2.80;;;1.25;;
18887;SDS011;9576;47.792;9.628;2023-04-03T15:18:26;1.13;;;0.93;;
18887;SDS011;9576;47.792;9.628;2023-04-03T15:21:32;2.45;;;1.50;;
18887;SDS011;9576;47.792;9.628;2023-04-03T15:24:34;1.30;;;1.20;;
18887;SDS011;9576;47.792;9.628;2023-04-03T15:27:37;4.05;;;1.83;;
18887;SDS011;9576;47.792;9.628;2023-04-03T15:30:40;1.52;;;1.17;;
18887;SDS011;9576;47.792;9.628;2023-04-03T15:33:42;1.63;;;1.17;;
18887;SDS011;9576;47.792;9.628;2023-04-03T15:36:44;1.33;;;1.15;;
18887;SDS011;9576;47.792;9.628;2023-04-03T15:39:46;1.05;;;1.02;;
18887;SDS011;9576;47.792;9.628;2023-04-03T15:42:49;1.63;;;1.17;;
18887;SDS011;9576;47.792;9.628;2023-04-03T15:45:52;1.48;;;1.35;;
18887;SDS011;9576;47.792;9.628;2023-04-03T15:48:59;1.95;;;1.75;;
18887;SDS011;9576;47.792;9.628;2023-04-03T15:52:02;4.45;;;1.95;;
18887;SDS011;9576;47.792;9.628;2023-04-03T15:55:04;1.13;;;1.02;;
18887;SDS011;9576;47.792;9.628;2023-04-03T15:58:08;2.70;;;1.65;;
18887;SDS011;9576;47.792;9.628;2023-04-03T16:01:10;3.63;;;1.60;;
18887;SDS011;9576;47.792;9.628;2023-04-03T16:04:13;2.17;;;1.30;;
18887;SDS011;9576;47.792;9.628;2023-04-03T16:07:15;1.23;;;0.95;;
18887;SDS011;9576;47.792;9.628;2023-04-03T16:10:17;4.22;;;1.42;;
18887;SDS011;9576;47.792;9.628;2023-04-03T16:13:21;2.08;;;1.50;;
18887;SDS011;9576;47.792;9.628;2023-04-03T16:16:23;1.20;;;1.10;;
18887;SDS011;9576;47.792;9.628;2023-04-03T16:19:27;2.83;;;1.17;;
18887;SDS011;9576;47.792;9.628;2023-04-03T16:22:32;2.33;;;0.95;;
18887;SDS011;9576;47.792;9.628;2023-04-03T16:25:34;1.25;;;1.15;;
18887;SDS011;9576;47.792;9.628;2023-04-03T16:28:38;2.75;;;1.15;;
18887;SDS011;9576;47.792;9.628;2023-04-03T16:31:40;1.55;;;1.10;;
18887;SDS011;9576;47.792;9.628;2023-04-03T16:34:42;1.65;;;1.42;;
18887;SDS011;9576;47.792;9.628;2023-04-03T16:37:44;1.27;;;1.17;;
18887;SDS011;9576;47.792;9.628;2023-04-03T16:40:46;2.75;;;1.35;;
18887;SDS011;9576;47.792;9.628;2023-04-03T16:43:49;1.70;;;1.15;;
18887;SDS011;9576;47.792;9.628;2023-04-03T16:46:51;1.25;;;1.15;;
18887;SDS011;9576;47.792;9.628;2023-04-03T16:49:53;3.05;;;1.70;;
18887;SDS011;9576;47.792;9.628;2023-04-03T16:52:55;2.65;;;1.50;;
18887;SDS011;9576;47.792;9.628;2023-04-03T16:55:57;1.45;;;1.35;;
18887;SDS011;9576;47.792;9.628;2023-04-03T16:59:01;1.02;;;0.93;;
18887;SDS011;9576;47.792;9.628;2023-04-03T17:02:03;4.18;;;1.95;;
18887;SDS011;9576;47.792;9.628;2023-04-03T17:05:05;2.55;;;1.48;;
18887;SDS011;9576;47.792;9.628;2023-04-03T17:08:08;1.33;;;1.00;;
18887;SDS011;9576;47.792;9.628;2023-04-03T17:11:10;2.15;;;1.58;;
18887;SDS011;9576;47.792;9.628;2023-04-03T17:14:13;10.48;;;3.78;;
18887;SDS011;9576;47.792;9.628;2023-04-03T17:17:15;10.80;;;3.30;;
18887;SDS011;9576;47.792;9.628;2023-04-03T17:20:21;5.78;;;2.90;;
18887;SDS011;9576;47.792;9.628;2023-04-03T17:23:23;4.70;;;2.65;;
18887;SDS011;9576;47.792;9.628;2023-04-03T17:26:26;4.88;;;2.80;;
18887;SDS011;9576;47.792;9.628;2023-04-03T17:29:30;6.88;;;3.10;;
18887;SDS011;9576;47.792;9.628;2023-04-03T17:32:32;3.38;;;2.50;;
18887;SDS011;9576;47.792;9.628;2023-04-03T17:35:34;7.07;;;2.88;;
18887;SDS011;9576;47.792;9.628;2023-04-03T17:38:35;10.00;;;4.55;;
18887;SDS011;9576;47.792;9.628;2023-04-03T17:41:38;8.55;;;3.65;;
18887;SDS011;9576;47.792;9.628;2023-04-03T17:44:41;9.88;;;3.15;;
18887;SDS011;9576;47.792;9.628;2023-04-03T17:47:43;6.22;;;2.90;;
18887;SDS011;9576;47.792;9.628;2023-04-03T17:50:45;6.45;;;3.05;;
18887;SDS011;9576;47.792;9.628;2023-04-03T17:53:47;5.82;;;3.13;;
18887;SDS011;9576;47.792;9.628;2023-04-03T17:56:50;8.93;;;3.35;;
18887;SDS011;9576;47.792;9.628;2023-04-03T17:59:53;15.40;;;3.05;;
18887;SDS011;9576;47.792;9.628;2023-04-03T18:02:55;5.35;;;2.70;;
18887;SDS011;9576;47.792;9.628;2023-04-03T18:05:57;13.88;;;4.57;;
18887;SDS011;9576;47.792;9.628;2023-04-03T18:09:00;8.55;;;3.83;;
18887;SDS011;9576;47.792;9.628;2023-04-03T18:12:06;9.30;;;4.00;;
18887;SDS011;9576;47.792;9.628;2023-04-03T18:15:10;16.92;;;7.63;;
18887;SDS011;9576;47.792;9.628;2023-04-03T18:18:12;22.55;;;6.90;;
18887;SDS011;9576;47.792;9.628;2023-04-03T18:21:15;15.48;;;6.03;;
18887;SDS011;9576;47.792;9.628;2023-04-03T18:24:17;11.05;;;4.10;;
18887;SDS011;9576;47.792;9.628;2023-04-03T18:27:21;9.88;;;3.78;;
18887;SDS011;9576;47.792;9.628;2023-04-03T18:30:26;5.00;;;3.05;;
18887;SDS011;9576;47.792;9.628;2023-04-03T18:33:28;5.72;;;2.95;;
18887;SDS011;9576;47.792;9.628;2023-04-03T18:36:30;4.50;;;2.40;;
18887;SDS011;9576;47.792;9.628;2023-04-03T18:39:33;8.82;;;2.72;;
18887;SDS011;9576;47.792;9.628;2023-04-03T18:42:35;11.35;;;3.38;;
18887;SDS011;9576;47.792;9.628;2023-04-03T18:45:38;5.90;;;3.22;;
18887;SDS011;9576;47.792;9.628;2023-04-03T18:48:40;6.88;;;2.67;;
18887;SDS011;9576;47.792;9.628;2023-04-03T18:51:42;7.40;;;3.65;;
18887;SDS011;9576;47.792;9.628;2023-04-03T18:54:44;6.55;;;2.97;;
18887;SDS011;9576;47.792;9.628;2023-04-03T18:57:47;6.43;;;2.70;;
18887;SDS011;9576;47.792;9.628;2023-04-03T19:00:50;5.38;;;2.60;;
18887;SDS011;9576;47.792;9.628;2023-04-03T19:03:52;6.68;;;3.78;;
18887;SDS011;9576;47.792;9.628;2023-04-03T19:06:54;13.13;;;3.45;;